createdAt,value
2019-05-22T00:04:18.457Z,10.4707
2019-05-22T00:44:59.430Z,10.5135
2019-05-22T01:23:38.538Z,10.3719
2019-05-22T01:33:48.433Z,10.2998
2019-05-22T02:02:18.465Z,10.3426
2019-05-22T02:10:28.438Z,10.2144
2019-05-22T02:38:57.758Z,10.0595
2019-05-22T02:49:08.503Z,10.0889
2019-05-22T03:07:28.461Z,10.1022
2019-05-22T03:17:40.292Z,10.1183
2019-05-22T03:56:20.669Z,9.8646
2019-05-22T03:58:23.430Z,9.8779
2019-05-22T04:02:28.431Z,9.9607
2019-05-22T04:10:41.055Z,10.0462
2019-05-22T04:49:19.502Z,10.2998
2019-05-22T04:57:28.488Z,10.3426
2019-05-22T05:11:48.720Z,10.3719
2019-05-22T05:19:58.528Z,10.4147
2019-05-22T06:00:44.487Z,15.6725
2019-05-22T06:04:49.592Z,17.0451
2019-05-22T06:12:58.472Z,18.3616
2019-05-22T06:17:08.560Z,16.2680
2019-05-22T06:27:18.445Z,13.9368
2019-05-22T06:35:27.771Z,17.2881
2019-05-22T06:45:38.570Z,19.0665
2019-05-22T07:14:08.491Z,14.2599
2019-05-22T07:22:18.823Z,17.7527
2019-05-22T08:11:08.506Z,20.9918
2019-05-22T08:29:29.503Z,22.9599
2019-05-22T08:33:36.021Z,21.8704
2019-05-22T08:39:43.446Z,21.6300
2019-05-22T08:44:13.604Z,22.8477
2019-05-22T08:48:13.916Z,21.9104
2019-05-22T09:19:54.995Z,21.7555
2019-05-22T09:39:32.934Z,24.7597
2019-05-22T09:48:09.633Z,24.5033
2019-05-22T10:00:09.163Z,23.7823
2019-05-22T10:00:09.163Z,25.4086
2019-05-22T10:03:01.376Z,23.5260
2019-05-22T10:08:28.025Z,24.5300
2019-05-22T10:19:23.264Z,25.1709
2019-05-22T10:37:23.587Z,25.2537
2019-05-22T10:43:00.726Z,23.5393
2019-05-22T10:46:02.375Z,23.1601
2019-05-22T11:00:20.908Z,23.7823
2019-05-22T11:03:04.813Z,25.1122
2019-05-22T11:06:05.696Z,24.5300
2019-05-22T11:09:00.567Z,24.0787
2019-05-22T11:11:45.480Z,23.9078
2019-05-22T11:14:34.974Z,25.0134
2019-05-22T11:17:18.964Z,24.7997
2019-05-22T11:33:58.808Z,24.4606
2019-05-22T11:42:05.754Z,23.4833
2019-05-22T11:55:45.391Z,24.0494
2019-05-22T12:01:07.447Z,23.8384
2019-05-22T12:11:56.766Z,24.8157
2019-05-22T12:20:03.735Z,24.7864
2019-05-22T12:25:28.835Z,24.7597
2019-05-22T12:28:27.158Z,23.5847
2019-05-22T12:33:54.477Z,25.5795
2019-05-22T12:42:03.273Z,24.6876
2019-05-22T12:44:46.844Z,25.1415
2019-05-22T12:47:56.270Z,24.5888
2019-05-22T12:53:22.862Z,25.9480
2019-05-22T12:58:52.933Z,25.9319
2019-05-22T13:07:32.548Z,23.3150
2019-05-22T13:16:13.699Z,23.1601
2019-05-22T13:19:00.376Z,24.0494
2019-05-22T13:37:56.819Z,23.1308
2019-05-22T13:43:45.718Z,25.8331
2019-05-22T13:49:45.141Z,22.1828
2019-05-22T14:01:27.864Z,22.8611
2019-05-22T14:04:11.850Z,23.4699
2019-05-22T14:06:58.486Z,22.9599
2019-05-22T14:09:57.153Z,22.7489
2019-05-22T14:12:39.759Z,24.7864
2019-05-22T14:15:25.813Z,25.0721
2019-05-22T14:18:22.661Z,23.5393
2019-05-22T14:21:12.697Z,22.9599
2019-05-22T14:23:56.774Z,22.4205
2019-05-22T14:26:39.787Z,23.6114
2019-05-22T14:29:22.850Z,25.6783
2019-05-22T14:35:06.039Z,23.3711
2019-05-22T14:37:49.802Z,24.6742
2019-05-22T14:40:31.778Z,25.4086
2019-05-22T14:43:13.782Z,23.8945
2019-05-22T14:46:02.167Z,22.8317
2019-05-22T14:48:46.762Z,22.3938
2019-05-22T14:51:29.472Z,21.5419
2019-05-22T14:54:12.815Z,21.7155
2019-05-22T14:56:57.680Z,21.1894
2019-05-22T14:59:40.792Z,20.5966
2019-05-22T15:02:24.013Z,22.2522
2019-05-22T15:05:12.792Z,23.5393
2019-05-22T15:07:56.653Z,22.6501
2019-05-22T15:10:40.314Z,22.0092
2019-05-22T15:13:23.868Z,21.2188
2019-05-22T15:16:07.821Z,19.8436
2019-05-22T15:18:50.194Z,19.9584
2019-05-22T15:21:33.942Z,19.2775
2019-05-22T15:28:46.418Z,19.1947
2019-05-22T15:31:29.958Z,18.7995
2019-05-22T15:34:13.971Z,18.8289
2019-05-22T15:37:02.934Z,18.5164
2019-05-22T15:39:47.510Z,18.1479
2019-05-22T15:42:57.241Z,18.1212
2019-05-22T15:49:12.406Z,18.6580
2019-05-22T15:52:02.674Z,19.4083
2019-05-22T15:54:45.886Z,19.4778
2019-05-22T15:57:30.108Z,18.9677
2019-05-22T16:00:19.344Z,19.5499
2019-05-22T16:03:26.916Z,19.3950
2019-05-22T16:06:10.867Z,18.6313
2019-05-22T16:08:55.008Z,19.2081
2019-05-22T16:11:38.966Z,19.4911
2019-05-22T16:14:22.882Z,19.7875
2019-05-22T16:17:07.751Z,20.1988
2019-05-22T16:19:52.327Z,20.8770
2019-05-22T16:22:36.182Z,20.7515
2019-05-22T16:25:20.778Z,20.6821
2019-05-22T16:28:06.308Z,20.2548
2019-05-22T16:31:00.495Z,22.0520
2019-05-22T16:33:55.203Z,22.4765
2019-05-22T16:36:39.958Z,22.6207
2019-05-22T16:39:29.226Z,23.0613
2019-05-22T16:42:12.040Z,22.0840
2019-05-22T16:44:57.416Z,21.6861
2019-05-22T16:51:23.134Z,22.1828
2019-05-22T16:54:06.760Z,23.4699
2019-05-22T16:56:48.817Z,22.9305
2019-05-22T16:59:36.609Z,22.6074
2019-05-22T17:02:19.955Z,22.7890
2019-05-22T17:05:03.920Z,21.5579
2019-05-22T17:07:47.798Z,21.7849
2019-05-22T17:10:39.890Z,22.1401
2019-05-22T17:13:31.504Z,21.8277
2019-05-22T17:16:13.895Z,21.7288
2019-05-22T17:19:27.772Z,21.7155
2019-05-22T17:22:12.851Z,21.4725
2019-05-22T17:24:55.930Z,20.6821
2019-05-22T17:31:37.299Z,20.5085
2019-05-22T17:31:37.299Z,19.7314
2019-05-22T17:34:20.804Z,20.6821
2019-05-22T17:37:14.911Z,20.4952
2019-05-22T17:39:59.756Z,20.5646
2019-05-22T17:42:42.267Z,19.9290
2019-05-22T17:45:28.714Z,20.1721
2019-05-22T17:48:11.500Z,19.8302
2019-05-22T17:50:54.751Z,19.6620
2019-05-22T17:53:37.852Z,19.4217
2019-05-22T17:56:50.957Z,19.4511
2019-05-22T17:59:53.031Z,18.8289
2019-05-22T18:02:47.468Z,18.1907
2019-05-22T18:05:32.506Z,17.7234
2019-05-22T18:08:22.256Z,17.2721
2019-05-22T18:11:07.437Z,16.7914
2019-05-22T18:13:49.941Z,16.1986
2019-05-22T18:16:34.118Z,15.4055
2019-05-22T18:19:25.888Z,15.0797
2019-05-22T18:22:10.729Z,14.5430
2019-05-22T18:24:54.648Z,13.9075
2019-05-22T18:27:38.999Z,13.4695
2019-05-22T18:30:23.374Z,13.0423
2019-05-22T18:33:07.286Z,12.7619
2019-05-22T18:35:51.436Z,12.3640
2019-05-22T18:38:34.964Z,12.2091
2019-05-22T18:41:18.846Z,12.0115
2019-05-22T18:44:01.968Z,11.6163
2019-05-22T18:46:45.802Z,11.4748
2019-05-22T18:49:28.859Z,11.3466
2019-05-22T18:52:11.856Z,11.1784
2019-05-22T18:54:54.823Z,10.8392
2019-05-22T18:57:37.826Z,10.6550
2019-05-22T19:00:20.862Z,10.4307
2019-05-22T19:03:03.814Z,10.3880
2019-05-22T19:05:46.795Z,10.2010
2019-05-22T19:08:28.781Z,10.0755
2019-05-22T19:11:11.892Z,9.9767
2019-05-22T19:13:55.889Z,9.9474
2019-05-22T19:16:39.833Z,9.7498
2019-05-22T19:19:25.867Z,9.9607
2019-05-22T19:22:14.361Z,10.4707
2019-05-22T19:24:57.956Z,10.7671
2019-05-22T19:27:44.628Z,11.1357
2019-05-22T19:30:27.994Z,11.5309
2019-05-22T19:33:14.883Z,11.6991
2019-05-22T19:36:00.642Z,11.8433
2019-05-22T19:38:44.741Z,12.2385
2019-05-22T19:41:27.830Z,12.0836
2019-05-22T19:44:12.640Z,12.1664
2019-05-22T19:46:55.559Z,12.3774
2019-05-22T19:49:38.478Z,12.2385
2019-05-22T19:52:22.779Z,12.3373
2019-05-22T19:55:09.676Z,12.1664
2019-05-22T19:57:52.539Z,12.0970
2019-05-22T20:00:35.873Z,11.8433
2019-05-22T20:03:20.265Z,11.8860
2019-05-22T20:06:03.826Z,11.6297
2019-05-22T20:08:48.048Z,11.4614
2019-05-22T20:11:31.856Z,11.3893
2019-05-22T20:14:15.219Z,11.0529
2019-05-22T20:16:58.833Z,10.9220
2019-05-22T20:19:41.919Z,10.9087
2019-05-22T20:22:25.842Z,11.0796
2019-05-22T20:25:09.034Z,11.0662
2019-05-22T20:27:53.022Z,10.8099
2019-05-22T20:30:36.553Z,10.7538
2019-05-22T20:33:19.564Z,10.3880
2019-05-22T20:36:02.560Z,10.2731
2019-05-22T20:38:45.577Z,9.9207
2019-05-22T20:41:28.535Z,9.6216
2019-05-22T20:44:12.384Z,9.1276
2019-05-22T20:46:55.657Z,9.1142
2019-05-22T20:49:38.591Z,8.8151
2019-05-22T20:52:21.827Z,8.5481
2019-05-22T20:55:04.491Z,8.5348
2019-05-22T20:57:48.494Z,8.3932
2019-05-22T21:00:31.658Z,8.1956
2019-05-22T21:03:15.454Z,8.0514
2019-05-22T21:06:02.282Z,7.9526
2019-05-22T21:08:46.973Z,7.9820
2019-05-22T21:11:32.445Z,7.8965
2019-05-22T21:14:18.319Z,7.8271
2019-05-22T21:17:03.621Z,7.6589
2019-05-22T21:19:47.795Z,7.5040
2019-05-22T21:22:31.262Z,7.5601
2019-05-22T21:25:15.413Z,7.6429
2019-05-22T21:27:59.044Z,7.7150
2019-05-22T21:30:42.436Z,7.7844
2019-05-22T21:33:26.418Z,8.0514
2019-05-22T21:36:09.484Z,8.2250
2019-05-22T21:38:52.591Z,8.4066
2019-05-22T21:41:35.482Z,8.6736
2019-05-22T21:44:18.787Z,9.0448
2019-05-22T21:47:01.570Z,9.1142
2019-05-22T21:49:44.608Z,9.1142
2019-05-22T21:52:27.516Z,9.0715
2019-05-22T21:55:10.679Z,9.1142
2019-05-22T21:57:53.470Z,9.1009
2019-05-22T22:00:36.587Z,9.1009
2019-05-22T22:03:19.887Z,9.0581
2019-05-22T22:06:03.641Z,9.1436
2019-05-22T22:08:46.466Z,9.0154
2019-05-22T22:11:30.258Z,9.0021
2019-05-22T22:14:13.674Z,8.9460
2019-05-22T22:16:57.126Z,8.8872
2019-05-22T22:19:41.407Z,8.8872
2019-05-22T22:22:25.655Z,8.8872
2019-05-22T22:25:10.305Z,8.9139
2019-05-22T22:27:53.451Z,8.9273
2019-05-22T22:30:37.710Z,8.9273
2019-05-22T22:33:21.733Z,8.8445
2019-05-22T22:36:04.270Z,8.6336
2019-05-22T22:38:48.733Z,8.4226
2019-05-22T22:41:33.345Z,8.1235
2019-05-22T22:44:17.202Z,7.6722
2019-05-22T22:47:01.268Z,7.3465
2019-05-22T22:49:45.790Z,7.0367
2019-05-22T22:52:29.274Z,6.8097
2019-05-22T22:55:12.542Z,6.6548
2019-05-22T22:57:55.266Z,6.4145
2019-05-22T23:00:40.471Z,6.3157
2019-05-22T23:03:24.867Z,6.1048
2019-05-22T23:06:09.607Z,5.8511
2019-05-22T23:08:53.721Z,6.0327
2019-05-22T23:15:07.162Z,6.1742
2019-05-22T23:15:07.162Z,6.2009
2019-05-22T23:17:51.409Z,6.2303
2019-05-22T23:20:36.899Z,6.3558
2019-05-22T23:23:22.004Z,6.4412
2019-05-22T23:26:06.501Z,6.4145
2019-05-22T23:28:55.077Z,6.4412
2019-05-22T23:31:39.494Z,6.7109
2019-05-22T23:34:22.198Z,6.7830
2019-05-22T23:37:06.242Z,6.7403
2019-05-22T23:39:50.273Z,6.5694
2019-05-22T23:42:33.776Z,6.6281
2019-05-22T23:45:16.604Z,6.7670
2019-05-22T23:47:59.517Z,6.7536
2019-05-22T23:50:42.524Z,6.8391
2019-05-22T23:53:25.761Z,6.7536
2019-05-22T23:56:10.090Z,6.6548
2019-05-22T23:58:54.735Z,6.6709
